Time;durP1;ratioP1;P1;durP2;ratioP2;P2;SDS_P1;SDS_P2;PMS_P1;PMS_P2;Temp;Humidity;BMP_temperature;BMP_pressure;BME280_temperature;BME280_humidity;BME280_pressure;Samples;Min_cycle;Max_cycle;Signal;HPM_P1;HPM_P2
2023/11/27 00:01:44;;;;;;;0.57;0.57;;;;;;;;;;4982447;28;58179;-74
2023/11/27 00:04:09;;;;;;;1.05;0.63;;;;;;;;;;4979425;28;57897;-72
2023/11/27 00:06:34;;;;;;;2.97;0.60;;;;;;;;;;4980329;28;58226;-72
2023/11/27 00:08:59;;;;;;;2.15;0.77;;;;;;;;;;4980654;28;57863;-72
2023/11/27 00:11:25;;;;;;;0.50;0.50;;;;;;;;;;4980939;28;57797;-72
2023/11/27 00:13:50;;;;;;;2.25;0.75;;;;;;;;;;4980777;28;59042;-72
2023/11/27 00:16:16;;;;;;;6.30;1.50;;;;;;;;;;4980628;28;58092;-71
2023/11/27 00:18:41;;;;;;;2.28;0.70;;;;;;;;;;4979800;28;58933;-72
2023/11/27 00:21:06;;;;;;;0.95;0.88;;;;;;;;;;4980895;28;58006;-71
2023/11/27 00:23:31;;;;;;;0.57;0.57;;;;;;;;;;4982268;28;58604;-73
2023/11/27 00:25:56;;;;;;;0.70;0.50;;;;;;;;;;4981884;28;58019;-73
2023/11/27 00:28:22;;;;;;;1.00;0.70;;;;;;;;;;4981125;28;57520;-74
2023/11/27 00:30:47;;;;;;;0.60;0.60;;;;;;;;;;4977812;28;58286;-73
2023/11/27 00:33:12;;;;;;;0.90;0.73;;;;;;;;;;4981010;28;58046;-71
2023/11/27 00:35:37;;;;;;;0.50;0.50;;;;;;;;;;4982037;28;58074;-72
2023/11/27 00:38:02;;;;;;;0.60;0.60;;;;;;;;;;4979393;28;57938;-71
2023/11/27 00:40:27;;;;;;;1.67;1.02;;;;;;;;;;4979757;28;57968;-71
2023/11/27 00:42:52;;;;;;;0.63;0.60;;;;;;;;;;4980948;28;58653;-71
2023/11/27 00:45:18;;;;;;;4.25;1.42;;;;;;;;;;4978548;28;58963;-71
2023/11/27 00:47:43;;;;;;;1.27;0.70;;;;;;;;;;4980918;28;57788;-71
2023/11/27 00:50:08;;;;;;;1.35;0.50;;;;;;;;;;4980525;28;57362;-72
2023/11/27 00:52:33;;;;;;;0.50;0.50;;;;;;;;;;4977594;28;59678;-71
2023/11/27 00:54:58;;;;;;;0.90;0.70;;;;;;;;;;4980373;28;58134;-71
2023/11/27 00:57:23;;;;;;;2.00;0.57;;;;;;;;;;4979954;28;57907;-71
2023/11/27 00:59:49;;;;;;;0.90;0.60;;;;;;;;;;4975603;28;57782;-71
2023/11/27 01:02:14;;;;;;;0.83;0.40;;;;;;;;;;4980557;28;57820;-71
2023/11/27 01:04:39;;;;;;;1.03;0.40;;;;;;;;;;4978473;28;58498;-72
2023/11/27 01:07:04;;;;;;;1.27;0.73;;;;;;;;;;4982422;28;57648;-71
2023/11/27 01:09:31;;;;;;;0.93;0.93;;;;;;;;;;4983440;28;57933;-71
2023/11/27 01:11:56;;;;;;;0.80;0.55;;;;;;;;;;4983365;28;58130;-71
2023/11/27 01:14:21;;;;;;;0.80;0.70;;;;;;;;;;4983438;28;57777;-71
2023/11/27 01:16:46;;;;;;;1.42;0.80;;;;;;;;;;4983530;28;59635;-71
2023/11/27 01:19:12;;;;;;;1.38;0.47;;;;;;;;;;4981443;28;58004;-71
2023/11/27 01:21:37;;;;;;;0.40;0.40;;;;;;;;;;4981697;28;58562;-72
2023/11/27 01:24:05;;;;;;;0.60;0.60;;;;;;;;;;4980728;28;58776;-70
2023/11/27 01:26:30;;;;;;;0.32;0.32;;;;;;;;;;4981890;28;58250;-71
2023/11/27 01:28:55;;;;;;;0.38;0.38;;;;;;;;;;4981790;28;58400;-71
2023/11/27 01:31:20;;;;;;;0.47;0.47;;;;;;;;;;4979371;28;58102;-72
2023/11/27 01:33:45;;;;;;;0.67;0.67;;;;;;;;;;4980291;28;57693;-71
2023/11/27 01:36:11;;;;;;;0.90;0.60;;;;;;;;;;4981134;28;58381;-71
2023/11/27 01:38:36;;;;;;;0.40;0.40;;;;;;;;;;4982538;28;59071;-71
2023/11/27 01:41:01;;;;;;;0.30;0.30;;;;;;;;;;4983209;28;57954;-71
2023/11/27 01:43:26;;;;;;;0.40;0.40;;;;;;;;;;4982669;28;58702;-71
2023/11/27 01:46:03;;;;;;;1.52;0.60;;;;;;;;;;4983348;28;58122;-71
2023/11/27 01:48:28;;;;;;;1.52;0.80;;;;;;;;;;4981621;28;58091;-71
2023/11/27 01:50:53;;;;;;;0.93;0.50;;;;;;;;;;4979156;28;59035;-71
2023/11/27 01:53:18;;;;;;;0.43;0.40;;;;;;;;;;4980790;28;58176;-71
2023/11/27 01:55:43;;;;;;;0.70;0.50;;;;;;;;;;4982987;28;57849;-71
2023/11/27 01:58:08;;;;;;;0.43;0.43;;;;;;;;;;4980564;28;58662;-72
2023/11/27 02:00:34;;;;;;;0.43;0.43;;;;;;;;;;5010944;28;58073;-72
2023/11/27 02:03:00;;;;;;;0.93;0.60;;;;;;;;;;4980146;28;59567;-71
2023/11/27 02:05:25;;;;;;;0.70;0.70;;;;;;;;;;4981309;28;57930;-72
2023/11/27 02:07:50;;;;;;;0.77;0.77;;;;;;;;;;4982113;28;58544;-71
2023/11/27 02:10:15;;;;;;;0.67;0.67;;;;;;;;;;4980370;28;58903;-71
2023/11/27 02:12:40;;;;;;;0.50;0.50;;;;;;;;;;4983544;28;57844;-71
2023/11/27 02:15:06;;;;;;;0.80;0.80;;;;;;;;;;4981119;28;58631;-71
2023/11/27 02:17:31;;;;;;;0.73;0.70;;;;;;;;;;4981892;28;58079;-71
2023/11/27 02:19:56;;;;;;;0.60;0.60;;;;;;;;;;4982851;28;57937;-71
2023/11/27 02:22:24;;;;;;;0.35;0.35;;;;;;;;;;4983109;28;58359;-71
2023/11/27 02:24:49;;;;;;;0.43;0.43;;;;;;;;;;4981856;28;59183;-71
2023/11/27 02:27:14;;;;;;;0.70;0.70;;;;;;;;;;4981064;28;57960;-71
2023/11/27 02:29:40;;;;;;;0.65;0.65;;;;;;;;;;4981719;28;58714;-72
2023/11/27 02:32:06;;;;;;;0.87;0.87;;;;;;;;;;4997853;28;57833;-71
2023/11/27 02:34:31;;;;;;;0.70;0.70;;;;;;;;;;4982236;28;58016;-72
2023/11/27 02:36:56;;;;;;;0.95;0.95;;;;;;;;;;4982620;28;58732;-72
2023/11/27 02:39:21;;;;;;;1.25;1.00;;;;;;;;;;4983267;28;58204;-72
2023/11/27 02:41:46;;;;;;;0.82;0.82;;;;;;;;;;4981295;28;58487;-72
2023/11/27 02:44:12;;;;;;;0.70;0.70;;;;;;;;;;4982837;28;58955;-71
2023/11/27 02:46:39;;;;;;;1.08;1.08;;;;;;;;;;4982902;28;58756;-71
2023/11/27 02:49:05;;;;;;;0.70;0.70;;;;;;;;;;4983360;28;58758;-71
2023/11/27 02:51:30;;;;;;;0.70;0.70;;;;;;;;;;4981381;28;59043;-71
2023/11/27 02:53:55;;;;;;;0.80;0.75;;;;;;;;;;4985365;28;58390;-75
2023/11/27 02:56:20;;;;;;;0.83;0.83;;;;;;;;;;4981122;28;59184;-73
2023/11/27 02:58:45;;;;;;;0.70;0.70;;;;;;;;;;4983765;28;58185;-74
2023/11/27 03:01:11;;;;;;;0.77;0.77;;;;;;;;;;4980717;28;58615;-73
2023/11/27 03:03:37;;;;;;;1.08;0.98;;;;;;;;;;4980862;28;58652;-73
2023/11/27 03:06:02;;;;;;;1.02;1.02;;;;;;;;;;4980967;28;58002;-73
2023/11/27 03:08:27;;;;;;;0.88;0.88;;;;;;;;;;4981790;28;59664;-73
2023/11/27 03:10:53;;;;;;;1.83;1.63;;;;;;;;;;4981591;28;57877;-73
2023/11/27 03:13:18;;;;;;;1.25;1.20;;;;;;;;;;4980933;28;57848;-73
2023/11/27 03:15:43;;;;;;;1.20;1.10;;;;;;;;;;4980091;28;58807;-73
2023/11/27 03:18:08;;;;;;;1.40;1.30;;;;;;;;;;4979814;28;57851;-73
2023/11/27 03:20:33;;;;;;;0.93;0.93;;;;;;;;;;4979656;28;59305;-73
2023/11/27 03:22:58;;;;;;;1.10;1.10;;;;;;;;;;4982661;28;57743;-73
2023/11/27 03:25:24;;;;;;;1.50;1.40;;;;;;;;;;4980327;28;58049;-73
2023/11/27 03:27:49;;;;;;;1.97;1.07;;;;;;;;;;4983093;28;57703;-73
2023/11/27 03:30:14;;;;;;;1.73;1.30;;;;;;;;;;4980639;28;57474;-73
2023/11/27 03:32:39;;;;;;;1.80;1.70;;;;;;;;;;4981073;28;58646;-73
2023/11/27 03:35:05;;;;;;;1.40;1.30;;;;;;;;;;4982236;28;58570;-73
2023/11/27 03:37:30;;;;;;;1.73;1.63;;;;;;;;;;4980541;28;57976;-73
2023/11/27 03:39:56;;;;;;;1.85;1.75;;;;;;;;;;4979639;28;58583;-73
2023/11/27 03:42:21;;;;;;;1.70;1.30;;;;;;;;;;4981333;28;58102;-73
2023/11/27 03:44:46;;;;;;;1.30;1.20;;;;;;;;;;4982069;28;57446;-73
2023/11/27 03:47:11;;;;;;;1.65;1.55;;;;;;;;;;4980846;28;57734;-73
2023/11/27 03:49:37;;;;;;;1.37;1.27;;;;;;;;;;4984450;28;58042;-73
2023/11/27 03:52:02;;;;;;;1.65;1.55;;;;;;;;;;4984012;28;58758;-73
2023/11/27 03:54:27;;;;;;;2.77;1.80;;;;;;;;;;4982739;28;57957;-73
2023/11/27 03:56:52;;;;;;;1.67;1.57;;;;;;;;;;4984356;28;58138;-73
2023/11/27 03:59:19;;;;;;;1.57;1.47;;;;;;;;;;4984588;28;58098;-73
2023/11/27 04:01:44;;;;;;;1.40;1.30;;;;;;;;;;4983292;28;58932;-73
2023/11/27 04:04:10;;;;;;;1.40;1.30;;;;;;;;;;4981515;28;58219;-73
2023/11/27 04:06:36;;;;;;;1.47;1.37;;;;;;;;;;4983462;28;58509;-73
2023/11/27 04:09:01;;;;;;;1.50;1.15;;;;;;;;;;4980578;28;58878;-73
2023/11/27 04:11:27;;;;;;;1.50;1.40;;;;;;;;;;4980803;28;57929;-73
2023/11/27 04:13:55;;;;;;;1.38;1.30;;;;;;;;;;4979838;28;58335;-73
2023/11/27 04:16:20;;;;;;;1.65;1.55;;;;;;;;;;4981015;28;58053;-73
2023/11/27 04:18:45;;;;;;;1.50;1.40;;;;;;;;;;4977352;28;58104;-73
2023/11/27 04:21:10;;;;;;;2.05;1.90;;;;;;;;;;4980821;28;58147;-73
2023/11/27 04:23:35;;;;;;;1.80;1.70;;;;;;;;;;4980655;28;57284;-73
2023/11/27 04:26:01;;;;;;;1.50;1.40;;;;;;;;;;4980641;28;58765;-73
2023/11/27 04:28:26;;;;;;;1.67;1.58;;;;;;;;;;4979279;28;58877;-73
2023/11/27 04:30:51;;;;;;;1.98;1.85;;;;;;;;;;4977056;28;58380;-73
2023/11/27 04:33:16;;;;;;;1.77;1.65;;;;;;;;;;4979985;28;58708;-74
2023/11/27 04:35:41;;;;;;;1.95;1.70;;;;;;;;;;4981174;28;57936;-73
2023/11/27 04:38:07;;;;;;;1.58;1.48;;;;;;;;;;4982064;28;58383;-73
2023/11/27 04:40:33;;;;;;;1.48;1.38;;;;;;;;;;4979919;28;57908;-73
2023/11/27 04:42:58;;;;;;;1.73;1.63;;;;;;;;;;4984125;28;58185;-73
2023/11/27 04:45:24;;;;;;;1.40;1.30;;;;;;;;;;4984583;28;58725;-73
2023/11/27 04:47:50;;;;;;;2.70;1.90;;;;;;;;;;4981720;28;59109;-73
2023/11/27 04:50:15;;;;;;;2.15;1.63;;;;;;;;;;4963374;28;58197;-73
2023/11/27 04:52:40;;;;;;;2.00;1.90;;;;;;;;;;4984101;28;58755;-74
2023/11/27 04:55:06;;;;;;;1.47;1.37;;;;;;;;;;4985149;28;58019;-74
2023/11/27 04:57:31;;;;;;;1.50;1.40;;;;;;;;;;4982719;28;59446;-73
2023/11/27 04:59:56;;;;;;;1.42;1.33;;;;;;;;;;4982686;28;58185;-73
2023/11/27 05:02:22;;;;;;;1.70;1.60;;;;;;;;;;4981471;28;57684;-73
2023/11/27 05:04:47;;;;;;;1.60;1.50;;;;;;;;;;4983159;28;58775;-73
2023/11/27 05:07:12;;;;;;;1.63;1.53;;;;;;;;;;4979766;28;59052;-73
2023/11/27 05:09:40;;;;;;;1.50;1.40;;;;;;;;;;4983018;28;57491;-74
2023/11/27 05:12:06;;;;;;;1.35;1.25;;;;;;;;;;4978084;28;58121;-73
2023/11/27 05:14:31;;;;;;;1.55;1.45;;;;;;;;;;4982400;28;58582;-71
2023/11/27 05:16:57;;;;;;;1.20;1.10;;;;;;;;;;4980701;28;58639;-71
2023/11/27 05:19:22;;;;;;;1.30;1.20;;;;;;;;;;4983513;28;58852;-71
2023/11/27 05:21:47;;;;;;;1.42;1.33;;;;;;;;;;4982043;28;57751;-71
2023/11/27 05:24:12;;;;;;;1.33;1.20;;;;;;;;;;4983105;28;58428;-71
2023/11/27 05:26:38;;;;;;;1.55;1.45;;;;;;;;;;4981349;28;57962;-71
2023/11/27 05:29:03;;;;;;;0.83;0.83;;;;;;;;;;4983959;28;57765;-71
2023/11/27 05:31:28;;;;;;;1.27;1.17;;;;;;;;;;4980260;28;58307;-71
2023/11/27 05:33:53;;;;;;;1.20;1.10;;;;;;;;;;4982180;28;59011;-69
2023/11/27 05:36:18;;;;;;;1.13;1.03;;;;;;;;;;4982685;28;57875;-70
2023/11/27 05:38:43;;;;;;;1.02;1.02;;;;;;;;;;4977357;28;58573;-73
2023/11/27 05:41:12;;;;;;;2.37;1.03;;;;;;;;;;4982626;28;58355;-73
2023/11/27 05:43:37;;;;;;;0.95;0.95;;;;;;;;;;4982962;28;62237;-68
2023/11/27 05:46:02;;;;;;;3.77;1.63;;;;;;;;;;4981293;28;58859;-69
2023/11/27 05:48:28;;;;;;;2.60;0.97;;;;;;;;;;4981364;28;58165;-69
2023/11/27 05:50:53;;;;;;;1.83;1.10;;;;;;;;;;4982546;28;58613;-73
2023/11/27 05:53:19;;;;;;;1.17;1.00;;;;;;;;;;4983001;28;58917;-70
2023/11/27 05:55:44;;;;;;;4.25;1.33;;;;;;;;;;4980914;28;57968;-69
2023/11/27 05:58:10;;;;;;;3.40;1.70;;;;;;;;;;4979802;28;59498;-70
2023/11/27 06:00:36;;;;;;;0.73;0.73;;;;;;;;;;4979735;28;57528;-70
2023/11/27 06:03:01;;;;;;;4.82;1.45;;;;;;;;;;4981721;28;58527;-70
2023/11/27 06:05:26;;;;;;;3.93;1.30;;;;;;;;;;4981994;28;60070;-70
2023/11/27 06:07:52;;;;;;;1.48;1.38;;;;;;;;;;4981430;28;58015;-70
2023/11/27 06:10:17;;;;;;;1.60;1.10;;;;;;;;;;4981091;28;58672;-70
2023/11/27 06:12:42;;;;;;;1.47;1.23;;;;;;;;;;4981600;28;59891;-70
2023/11/27 06:15:08;;;;;;;1.92;1.40;;;;;;;;;;4982917;28;57903;-70
2023/11/27 06:17:33;;;;;;;3.45;1.10;;;;;;;;;;4983210;28;59470;-70
2023/11/27 06:19:58;;;;;;;0.82;0.80;;;;;;;;;;4984293;28;58035;-70
2023/11/27 06:22:23;;;;;;;2.22;0.93;;;;;;;;;;4983700;28;57816;-70
2023/11/27 06:24:48;;;;;;;1.10;0.97;;;;;;;;;;4983171;28;59063;-70
2023/11/27 06:27:14;;;;;;;1.80;0.80;;;;;;;;;;4982594;28;57839;-70
2023/11/27 06:29:39;;;;;;;1.40;1.30;;;;;;;;;;4982927;28;57756;-70
2023/11/27 06:32:04;;;;;;;1.13;1.00;;;;;;;;;;4980089;28;58677;-70
2023/11/27 06:34:29;;;;;;;1.08;0.80;;;;;;;;;;4984081;28;57805;-70
2023/11/27 06:36:55;;;;;;;1.83;0.80;;;;;;;;;;4983083;28;57816;-70
2023/11/27 06:39:20;;;;;;;1.23;0.80;;;;;;;;;;4980807;28;59211;-72
2023/11/27 06:41:45;;;;;;;1.45;1.35;;;;;;;;;;4982565;28;57778;-72
2023/11/27 06:44:13;;;;;;;2.45;1.42;;;;;;;;;;4982706;28;58705;-70
2023/11/27 06:46:39;;;;;;;7.15;1.20;;;;;;;;;;4983045;28;57911;-70
2023/11/27 06:49:05;;;;;;;1.27;1.17;;;;;;;;;;4982112;28;58838;-70
2023/11/27 06:51:30;;;;;;;0.85;0.75;;;;;;;;;;4980274;28;59015;-70
2023/11/27 06:53:55;;;;;;;1.10;0.90;;;;;;;;;;4983910;28;57667;-70
2023/11/27 06:56:20;;;;;;;0.60;0.60;;;;;;;;;;4977576;28;57851;-70
2023/11/27 06:58:46;;;;;;;1.80;0.80;;;;;;;;;;4983468;28;57736;-70
2023/11/27 07:01:11;;;;;;;0.67;0.63;;;;;;;;;;4980673;28;57715;-70
2023/11/27 07:03:36;;;;;;;1.00;0.93;;;;;;;;;;4980584;28;59351;-70
2023/11/27 07:06:02;;;;;;;0.98;0.73;;;;;;;;;;4981891;28;58182;-70
2023/11/27 07:08:27;;;;;;;0.90;0.90;;;;;;;;;;4984137;28;57752;-69
2023/11/27 07:10:52;;;;;;;0.80;0.80;;;;;;;;;;4979291;28;58935;-70
2023/11/27 07:13:17;;;;;;;0.70;0.57;;;;;;;;;;4983155;28;57860;-70
2023/11/27 07:15:43;;;;;;;1.02;0.93;;;;;;;;;;4982909;28;57984;-70
2023/11/27 07:18:08;;;;;;;0.60;0.55;;;;;;;;;;4981522;28;58978;-70
2023/11/27 07:20:34;;;;;;;0.82;0.65;;;;;;;;;;4979868;28;57575;-70
2023/11/27 07:23:01;;;;;;;2.10;0.70;;;;;;;;;;4983103;28;58679;-69
2023/11/27 07:25:26;;;;;;;1.27;1.13;;;;;;;;;;4978476;28;57935;-70
2023/11/27 07:27:51;;;;;;;0.98;0.80;;;;;;;;;;4982486;28;58365;-70
2023/11/27 07:30:16;;;;;;;0.50;0.50;;;;;;;;;;4978959;28;58949;-70
2023/11/27 07:32:42;;;;;;;0.60;0.60;;;;;;;;;;4982735;28;58324;-72
2023/11/27 07:35:09;;;;;;;0.60;0.60;;;;;;;;;;4980378;28;58929;-70
2023/11/27 07:37:35;;;;;;;0.60;0.60;;;;;;;;;;4981069;28;58782;-71
2023/11/27 07:40:01;;;;;;;0.85;0.50;;;;;;;;;;4980510;28;57737;-69
2023/11/27 07:42:26;;;;;;;0.57;0.55;;;;;;;;;;4982501;28;58637;-70
2023/11/27 07:44:51;;;;;;;0.70;0.40;;;;;;;;;;4980941;28;58920;-70
2023/11/27 07:47:16;;;;;;;2.15;0.80;;;;;;;;;;4982226;28;58329;-72
2023/11/27 07:49:42;;;;;;;0.80;0.80;;;;;;;;;;4980447;28;58813;-70
2023/11/27 07:52:07;;;;;;;0.63;0.63;;;;;;;;;;4982543;28;58022;-70
2023/11/27 07:54:32;;;;;;;0.63;0.63;;;;;;;;;;4982073;28;58694;-70
2023/11/27 07:56:57;;;;;;;0.60;0.53;;;;;;;;;;4982102;28;57799;-70
2023/11/27 07:59:25;;;;;;;0.55;0.55;;;;;;;;;;4980354;28;58172;-70
2023/11/27 08:01:51;;;;;;;0.50;0.50;;;;;;;;;;4981462;28;59025;-70
2023/11/27 08:04:16;;;;;;;0.93;0.53;;;;;;;;;;4979599;28;58725;-70
2023/11/27 08:06:41;;;;;;;0.55;0.55;;;;;;;;;;4983146;28;57733;-70
2023/11/27 08:09:07;;;;;;;1.50;0.80;;;;;;;;;;4980806;28;59061;-70
2023/11/27 08:11:33;;;;;;;0.50;0.50;;;;;;;;;;4980386;28;57615;-70
2023/11/27 08:13:58;;;;;;;1.20;1.02;;;;;;;;;;4980542;28;59475;-70
2023/11/27 08:16:23;;;;;;;0.60;0.60;;;;;;;;;;4982092;28;58115;-70
2023/11/27 08:18:49;;;;;;;0.43;0.43;;;;;;;;;;4979814;28;57593;-70
2023/11/27 08:21:14;;;;;;;0.38;0.38;;;;;;;;;;4982211;28;58648;-70
2023/11/27 08:23:42;;;;;;;0.33;0.33;;;;;;;;;;4980390;28;58107;-70
2023/11/27 08:26:07;;;;;;;1.03;0.57;;;;;;;;;;4982053;28;58040;-70
2023/11/27 08:28:33;;;;;;;0.80;0.40;;;;;;;;;;4980292;28;58659;-70
2023/11/27 08:30:58;;;;;;;0.98;0.88;;;;;;;;;;4978119;28;57605;-70
2023/11/27 08:33:25;;;;;;;0.60;0.60;;;;;;;;;;4982673;28;57704;-71
2023/11/27 08:35:51;;;;;;;0.50;0.50;;;;;;;;;;4980907;28;59942;-74
2023/11/27 08:38:16;;;;;;;0.20;0.20;;;;;;;;;;4979854;28;57918;-74
2023/11/27 08:40:42;;;;;;;0.43;0.43;;;;;;;;;;4980735;28;58519;-74
2023/11/27 08:43:07;;;;;;;0.30;0.30;;;;;;;;;;4979750;28;59016;-70
2023/11/27 08:45:33;;;;;;;0.40;0.30;;;;;;;;;;4980238;28;58107;-69
2023/11/27 08:48:00;;;;;;;0.50;0.43;;;;;;;;;;4979452;28;58427;-72
2023/11/27 08:50:27;;;;;;;0.70;0.50;;;;;;;;;;4978322;28;57676;-72
2023/11/27 08:52:56;;;;;;;0.40;0.40;;;;;;;;;;4981054;28;58699;-72
2023/11/27 08:55:28;;;;;;;1.15;0.60;;;;;;;;;;4981041;28;59161;-72
2023/11/27 08:57:54;;;;;;;0.60;0.60;;;;;;;;;;4978997;28;57874;-72
2023/11/27 09:00:19;;;;;;;0.40;0.40;;;;;;;;;;4980495;28;58549;-72
2023/11/27 09:02:45;;;;;;;0.40;0.30;;;;;;;;;;4980239;28;59111;-70
2023/11/27 09:05:10;;;;;;;0.47;0.47;;;;;;;;;;4982646;28;57551;-71
2023/11/27 09:07:35;;;;;;;0.53;0.53;;;;;;;;;;4980390;28;58529;-72
2023/11/27 09:10:02;;;;;;;0.30;0.30;;;;;;;;;;4976752;28;58624;-72
2023/11/27 09:12:27;;;;;;;0.30;0.30;;;;;;;;;;4971807;28;58737;-70
2023/11/27 09:14:52;;;;;;;0.90;0.20;;;;;;;;;;4980598;28;58981;-70
2023/11/27 09:17:18;;;;;;;0.25;0.22;;;;;;;;;;4982245;28;58013;-73
2023/11/27 09:19:44;;;;;;;0.30;0.30;;;;;;;;;;4982905;28;57797;-73
2023/11/27 09:22:09;;;;;;;0.30;0.30;;;;;;;;;;4979436;28;58127;-71
2023/11/27 09:24:34;;;;;;;0.10;0.10;;;;;;;;;;4982376;28;57775;-71
2023/11/27 09:27:01;;;;;;;0.20;0.20;;;;;;;;;;4981340;28;58424;-70
2023/11/27 09:29:26;;;;;;;0.22;0.22;;;;;;;;;;4981360;28;59293;-71
2023/11/27 09:31:51;;;;;;;0.43;0.43;;;;;;;;;;4982845;28;58154;-71
2023/11/27 09:34:17;;;;;;;0.40;0.40;;;;;;;;;;4983880;28;57843;-71
2023/11/27 09:36:42;;;;;;;0.43;0.20;;;;;;;;;;4980618;28;58106;-71
2023/11/27 09:39:10;;;;;;;0.30;0.30;;;;;;;;;;4981637;28;58516;-72
2023/11/27 09:41:35;;;;;;;0.20;0.20;;;;;;;;;;4980641;28;59376;-70
2023/11/27 09:44:01;;;;;;;0.32;0.32;;;;;;;;;;4983669;28;57864;-70
2023/11/27 09:46:27;;;;;;;0.20;0.20;;;;;;;;;;4981877;28;58320;-69
2023/11/27 09:48:54;;;;;;;0.40;0.32;;;;;;;;;;4982753;28;58869;-71
2023/11/27 09:51:20;;;;;;;0.20;0.20;;;;;;;;;;4982088;28;57805;-72
2023/11/27 09:53:49;;;;;;;0.30;0.30;;;;;;;;;;4984752;28;57914;-72
2023/11/27 09:56:14;;;;;;;;;;;;;;;;;;4982811;28;58034;-72
2023/11/27 09:58:42;;;;;;;0.63;0.30;;;;;;;;;;4983128;28;58633;-73
2023/11/27 10:01:09;;;;;;;;;;;;;;;;;;4982454;28;59384;-72
2023/11/27 10:03:34;;;;;;;0.30;0.30;;;;;;;;;;4984140;28;58357;-72
2023/11/27 10:06:00;;;;;;;0.40;0.30;;;;;;;;;;4983898;28;58588;-69
2023/11/27 10:08:26;;;;;;;0.22;0.22;;;;;;;;;;4982679;28;58162;-70
2023/11/27 10:10:52;;;;;;;0.20;0.20;;;;;;;;;;4983099;28;57804;-70
2023/11/27 10:13:27;;;;;;;0.10;0.10;;;;;;;;;;4985566;28;58044;-69
2023/11/27 10:15:53;;;;;;;0.13;0.13;;;;;;;;;;4987228;28;58059;-69
2023/11/27 10:18:18;;;;;;;0.30;0.30;;;;;;;;;;4985239;28;58465;-70
2023/11/27 10:20:44;;;;;;;0.47;0.47;;;;;;;;;;4985270;28;58745;-71
2023/11/27 10:23:11;;;;;;;0.30;0.30;;;;;;;;;;4987433;28;58161;-70
2023/11/27 10:25:36;;;;;;;0.13;0.13;;;;;;;;;;4981818;28;58621;-70
2023/11/27 10:28:01;;;;;;;0.15;0.15;;;;;;;;;;4983773;28;58575;-70
2023/11/27 10:30:27;;;;;;;0.10;0.10;;;;;;;;;;4982081;28;58104;-70
2023/11/27 10:32:52;;;;;;;0.20;0.20;;;;;;;;;;4983672;28;58698;-70
2023/11/27 10:35:20;;;;;;;0.40;0.17;;;;;;;;;;4981467;28;58873;-70
2023/11/27 10:37:45;;;;;;;0.10;0.10;;;;;;;;;;4983680;28;57903;-70
2023/11/27 10:40:14;;;;;;;0.20;0.20;;;;;;;;;;4980344;28;59311;-70
2023/11/27 10:42:48;;;;;;;0.63;0.20;;;;;;;;;;4981390;28;57945;-70
2023/11/27 10:45:23;;;;;;;0.20;0.20;;;;;;;;;;4982454;28;58403;-70
2023/11/27 10:47:50;;;;;;;0.10;0.10;;;;;;;;;;4984076;28;57652;-70
2023/11/27 10:50:15;;;;;;;0.20;0.20;;;;;;;;;;4980006;28;57809;-72
2023/11/27 10:52:43;;;;;;;0.20;0.20;;;;;;;;;;4983685;28;58988;-70
2023/11/27 10:55:09;;;;;;;0.20;0.20;;;;;;;;;;4982478;28;58186;-70
2023/11/27 10:57:37;;;;;;;0.32;0.20;;;;;;;;;;4980622;28;57818;-70
2023/11/27 11:00:04;;;;;;;0.20;0.20;;;;;;;;;;4980451;28;59083;-70
2023/11/27 11:02:32;;;;;;;0.23;0.20;;;;;;;;;;4982911;28;57935;-70
2023/11/27 11:04:58;;;;;;;0.23;0.23;;;;;;;;;;4981220;28;59515;-69
2023/11/27 11:07:28;;;;;;;0.10;0.10;;;;;;;;;;4978882;28;58082;-69
2023/11/27 11:09:55;;;;;;;0.20;0.20;;;;;;;;;;4981221;28;58178;-70
2023/11/27 11:12:23;;;;;;;0.60;0.20;;;;;;;;;;4981248;28;58858;-70
2023/11/27 11:14:49;;;;;;;0.10;0.10;;;;;;;;;;4982451;28;58840;-72
2023/11/27 11:17:19;;;;;;;0.30;0.30;;;;;;;;;;4982132;28;58202;-72
2023/11/27 11:19:45;;;;;;;0.20;0.20;;;;;;;;;;4982002;28;58638;-72
2023/11/27 11:22:10;;;;;;;0.20;0.20;;;;;;;;;;4982111;28;57859;-72
2023/11/27 11:24:52;;;;;;;0.10;0.10;;;;;;;;;;4982932;28;57835;-72
2023/11/27 11:27:22;;;;;;;0.20;0.20;;;;;;;;;;4980013;28;59305;-72
2023/11/27 11:29:49;;;;;;;0.13;0.13;;;;;;;;;;4981946;28;57879;-72
2023/11/27 11:32:16;;;;;;;0.20;0.20;;;;;;;;;;4981227;28;58908;-72
2023/11/27 11:34:42;;;;;;;0.13;0.13;;;;;;;;;;4980252;28;58924;-72
2023/11/27 11:37:11;;;;;;;0.10;0.10;;;;;;;;;;4982420;28;58214;-72
2023/11/27 11:39:37;;;;;;;0.30;0.25;;;;;;;;;;4980396;28;57690;-72
2023/11/27 11:42:03;;;;;;;0.28;0.20;;;;;;;;;;4979145;28;57836;-72
2023/11/27 11:44:31;;;;;;;0.20;0.20;;;;;;;;;;4983634;28;58655;-72
2023/11/27 11:46:56;;;;;;;0.00;0.00;;;;;;;;;;4980305;28;59115;-72
2023/11/27 11:49:25;;;;;;;0.10;0.10;;;;;;;;;;4996562;28;58195;-72
2023/11/27 11:52:10;;;;;;;0.10;0.10;;;;;;;;;;4982542;28;58568;-72
2023/11/27 11:54:38;;;;;;;0.10;0.10;;;;;;;;;;4981466;28;58918;-72
2023/11/27 11:57:12;;;;;;;0.20;0.20;;;;;;;;;;4980133;28;57864;-72
2023/11/27 11:59:38;;;;;;;0.10;0.10;;;;;;;;;;4981186;28;58970;-72
2023/11/27 12:02:10;;;;;;;0.40;0.40;;;;;;;;;;4980339;28;58923;-72
2023/11/27 12:04:36;;;;;;;0.20;0.20;;;;;;;;;;4963076;28;57899;-72
2023/11/27 12:07:01;;;;;;;0.30;0.30;;;;;;;;;;4972516;28;58121;-72
2023/11/27 12:09:26;;;;;;;0.20;0.20;;;;;;;;;;4981055;28;58830;-74
2023/11/27 12:11:57;;;;;;;0.23;0.20;;;;;;;;;;4981545;28;58705;-73
2023/11/27 12:14:26;;;;;;;0.20;0.20;;;;;;;;;;4982092;28;59155;-73
2023/11/27 12:16:51;;;;;;;0.28;0.28;;;;;;;;;;4982508;28;57908;-73
2023/11/27 12:19:19;;;;;;;0.20;0.20;;;;;;;;;;4980802;28;58732;-72
2023/11/27 12:21:44;;;;;;;0.30;0.30;;;;;;;;;;4980012;28;59517;-73
2023/11/27 12:24:11;;;;;;;0.30;0.30;;;;;;;;;;4982184;28;57961;-70
2023/11/27 12:26:37;;;;;;;0.20;0.20;;;;;;;;;;4981291;28;58669;-71
2023/11/27 12:29:02;;;;;;;0.20;0.20;;;;;;;;;;4981256;28;57629;-72
2023/11/27 12:31:27;;;;;;;0.13;0.13;;;;;;;;;;4978446;28;58026;-70
2023/11/27 12:33:53;;;;;;;0.20;0.20;;;;;;;;;;4980243;28;58279;-71
2023/11/27 12:36:20;;;;;;;0.25;0.25;;;;;;;;;;4980547;28;57871;-69
2023/11/27 12:38:46;;;;;;;0.28;0.28;;;;;;;;;;4981659;28;58917;-71
2023/11/27 12:41:16;;;;;;;0.30;0.30;;;;;;;;;;4981688;28;57994;-70
2023/11/27 12:43:42;;;;;;;0.20;0.10;;;;;;;;;;4983243;28;57939;-69
2023/11/27 12:46:13;;;;;;;0.32;0.32;;;;;;;;;;4981811;28;57895;-70
2023/11/27 12:48:40;;;;;;;0.30;0.30;;;;;;;;;;4981416;28;58444;-71
2023/11/27 12:51:12;;;;;;;0.20;0.20;;;;;;;;;;4981381;28;57974;-71
2023/11/27 12:53:37;;;;;;;0.28;0.28;;;;;;;;;;4978096;28;59120;-72
2023/11/27 12:56:03;;;;;;;0.20;0.20;;;;;;;;;;4980329;28;57838;-70
2023/11/27 12:58:28;;;;;;;0.20;0.20;;;;;;;;;;4979134;28;58047;-71
2023/11/27 13:00:56;;;;;;;0.27;0.27;;;;;;;;;;4979538;28;59215;-72
2023/11/27 13:03:22;;;;;;;0.77;0.60;;;;;;;;;;4984770;28;58046;-71
2023/11/27 13:05:54;;;;;;;0.20;0.20;;;;;;;;;;4981114;28;58155;-71
2023/11/27 13:08:25;;;;;;;0.30;0.30;;;;;;;;;;4999303;28;59164;-70
2023/11/27 13:10:51;;;;;;;0.20;0.20;;;;;;;;;;4982422;28;58680;-71
2023/11/27 13:13:20;;;;;;;0.30;0.30;;;;;;;;;;4980703;28;58740;-71
2023/11/27 13:15:45;;;;;;;0.22;0.22;;;;;;;;;;4982243;28;57977;-70
2023/11/27 13:18:15;;;;;;;0.38;0.38;;;;;;;;;;4982198;28;58615;-73
2023/11/27 13:20:40;;;;;;;0.45;0.45;;;;;;;;;;4983340;28;58898;-71
2023/11/27 13:23:06;;;;;;;0.20;0.20;;;;;;;;;;4984595;28;57916;-70
2023/11/27 13:25:36;;;;;;;0.13;0.13;;;;;;;;;;4980761;28;58707;-71
2023/11/27 13:28:02;;;;;;;0.17;0.17;;;;;;;;;;4984268;28;58967;-70
2023/11/27 13:30:28;;;;;;;0.32;0.32;;;;;;;;;;4981827;28;58179;-70
2023/11/27 13:32:58;;;;;;;0.20;0.20;;;;;;;;;;4983969;28;58176;-72
2023/11/27 13:35:29;;;;;;;0.40;0.40;;;;;;;;;;4984561;28;58300;-71
2023/11/27 13:37:55;;;;;;;0.22;0.20;;;;;;;;;;4982509;28;58703;-71
2023/11/27 13:40:23;;;;;;;0.32;0.30;;;;;;;;;;4978959;28;59870;-76
2023/11/27 13:42:50;;;;;;;1.95;0.20;;;;;;;;;;4985192;28;57745;-74
2023/11/27 13:45:16;;;;;;;0.30;0.30;;;;;;;;;;4983715;28;58804;-74
2023/11/27 13:47:43;;;;;;;0.20;0.20;;;;;;;;;;4982605;28;59329;-74
2023/11/27 13:50:09;;;;;;;0.32;0.32;;;;;;;;;;4985072;28;57851;-73
2023/11/27 13:52:34;;;;;;;0.25;0.25;;;;;;;;;;4983992;28;58040;-74
2023/11/27 13:55:00;;;;;;;0.70;0.45;;;;;;;;;;4982090;28;57798;-74
2023/11/27 13:57:30;;;;;;;0.23;0.20;;;;;;;;;;4985354;28;57848;-74
2023/11/27 13:59:59;;;;;;;0.30;0.30;;;;;;;;;;4982698;28;59211;-74
2023/11/27 14:02:27;;;;;;;0.30;0.30;;;;;;;;;;4982329;28;58217;-73
2023/11/27 14:04:59;;;;;;;0.88;0.20;;;;;;;;;;4985018;28;58776;-73
2023/11/27 14:07:25;;;;;;;0.20;0.20;;;;;;;;;;4981994;28;59404;-72
2023/11/27 14:12:26;;;;;;;;;;;;;;;;;;4982507;28;58775;-73
2023/11/27 14:15:05;;;;;;;0.10;0.10;;;;;;;;;;4985582;28;57950;-76
2023/11/27 14:17:32;;;;;;;0.32;0.15;;;;;;;;;;4981628;28;58093;-75
2023/11/27 14:22:55;;;;;;;0.32;0.30;;;;;;;;;;4995147;28;58159;-76
2023/11/27 14:25:49;;;;;;;0.63;0.63;;;;;;;;;;4980767;28;57997;-77
2023/11/27 14:28:19;;;;;;;1.20;0.43;;;;;;;;;;4982702;28;58524;-77
2023/11/27 14:30:47;;;;;;;0.40;0.40;;;;;;;;;;4980385;28;57958;-71
2023/11/27 14:33:13;;;;;;;1.55;0.50;;;;;;;;;;4984061;28;58403;-73
2023/11/27 14:35:38;;;;;;;1.00;0.30;;;;;;;;;;4979546;28;58871;-73
2023/11/27 14:38:05;;;;;;;1.60;0.30;;;;;;;;;;4984151;28;57887;-74
2023/11/27 14:40:31;;;;;;;0.10;0.10;;;;;;;;;;4981503;28;58948;-74
2023/11/27 14:42:57;;;;;;;1.38;0.38;;;;;;;;;;4984636;28;58004;-73